Time;durP1;ratioP1;P1;durP2;ratioP2;P2;SDS_P1;SDS_P2;PMS_P1;PMS_P2;Temp;Humidity;BMP_temperature;BMP_pressure;BME280_temperature;BME280_humidity;BME280_pressure;Samples;Min_cycle;Max_cycle;Signal;HPM_P1;HPM_P2
2022/08/29 00:02:54;;;;;;;1.20;1.10;;;14.40;99.90;;;;;;6314154;28;20289;-68
2022/08/29 00:06:00;;;;;;;2.75;1.27;;;14.50;99.90;;;;;;6315096;28;20271;-68
2022/08/29 00:09:05;;;;;;;0.85;0.85;;;14.50;99.90;;;;;;6329904;28;20299;-68
2022/08/29 00:12:15;;;;;;;1.08;1.02;;;14.50;99.90;;;;;;6314546;28;20548;-68
2022/08/29 00:15:21;;;;;;;1.30;0.98;;;14.40;99.90;;;;;;6314847;28;20270;-68
2022/08/29 00:18:27;;;;;;;0.90;0.90;;;14.40;99.90;;;;;;6314130;28;20395;-69
2022/08/29 00:21:32;;;;;;;1.00;1.00;;;14.40;99.90;;;;;;6314405;28;20286;-69
2022/08/29 00:24:38;;;;;;;0.80;0.80;;;14.40;99.90;;;;;;6313984;28;20294;-68
2022/08/29 00:27:45;;;;;;;1.65;1.00;;;14.40;99.90;;;;;;6295696;28;20290;-68
2022/08/29 00:30:54;;;;;;;0.93;0.80;;;14.40;99.90;;;;;;6314012;28;20270;-68
2022/08/29 00:33:59;;;;;;;1.30;0.90;;;14.40;99.90;;;;;;6311994;28;20294;-68
2022/08/29 00:37:05;;;;;;;1.48;0.80;;;14.40;99.90;;;;;;6313585;28;20561;-68
2022/08/29 00:40:18;;;;;;;1.20;0.75;;;14.50;99.90;;;;;;6314138;28;20548;-68
2022/08/29 00:43:28;;;;;;;3.00;0.90;;;14.40;99.90;;;;;;6305209;28;20299;-68
2022/08/29 00:46:53;;;;;;;1.30;1.20;;;14.40;99.90;;;;;;6313732;28;20271;-68
2022/08/29 00:49:58;;;;;;;2.13;1.00;;;14.50;99.90;;;;;;6312905;28;20310;-68
2022/08/29 00:53:05;;;;;;;1.48;1.00;;;14.50;99.90;;;;;;6313173;28;20329;-68
2022/08/29 00:56:14;;;;;;;0.75;0.75;;;14.50;99.90;;;;;;6313705;28;20270;-68
2022/08/29 00:59:23;;;;;;;1.10;1.10;;;14.50;99.90;;;;;;6312197;28;20306;-68
2022/08/29 01:02:32;;;;;;;0.70;0.70;;;14.40;99.90;;;;;;6328386;28;20287;-68
2022/08/29 01:05:45;;;;;;;2.30;1.40;;;14.40;99.90;;;;;;6313700;28;20318;-68
2022/08/29 01:08:50;;;;;;;1.00;1.00;;;14.40;99.90;;;;;;6312960;28;20299;-68
2022/08/29 01:12:18;;;;;;;0.90;0.90;;;14.30;99.90;;;;;;6312943;28;20266;-68
2022/08/29 01:15:25;;;;;;;0.98;0.95;;;14.30;99.90;;;;;;6313739;28;20271;-68
2022/08/29 01:18:32;;;;;;;1.17;0.75;;;14.30;99.90;;;;;;6312831;28;20294;-68
2022/08/29 01:21:41;;;;;;;1.00;1.00;;;14.40;99.90;;;;;;6313441;28;20290;-68
2022/08/29 01:24:51;;;;;;;0.98;0.98;;;14.40;99.90;;;;;;6312858;28;20302;-68
2022/08/29 01:28:03;;;;;;;0.98;0.98;;;14.30;99.90;;;;;;6312311;28;20294;-68
2022/08/29 01:31:12;;;;;;;1.00;1.00;;;14.30;99.90;;;;;;6313087;28;20271;-68
2022/08/29 01:34:19;;;;;;;0.80;0.80;;;14.30;99.90;;;;;;6312728;28;20381;-68
2022/08/29 01:37:29;;;;;;;1.00;1.00;;;14.30;99.90;;;;;;6304151;28;20294;-68
2022/08/29 01:40:37;;;;;;;0.95;0.80;;;14.20;99.90;;;;;;6312115;28;20290;-68
2022/08/29 01:43:45;;;;;;;0.90;0.90;;;14.30;99.90;;;;;;6311943;28;20297;-68
2022/08/29 01:46:54;;;;;;;3.20;0.90;;;14.30;99.90;;;;;;6312411;28;20271;-68
2022/08/29 01:50:14;;;;;;;0.80;0.80;;;14.30;99.90;;;;;;6311532;28;20290;-68
2022/08/29 01:53:20;;;;;;;0.93;0.93;;;14.30;99.90;;;;;;6311730;28;20294;-68
2022/08/29 01:56:31;;;;;;;0.80;0.80;;;14.30;99.90;;;;;;6312141;28;20433;-68
2022/08/29 01:59:36;;;;;;;1.48;1.25;;;14.30;99.90;;;;;;6311638;28;20294;-68
2022/08/29 02:02:43;;;;;;;0.75;0.75;;;14.30;99.90;;;;;;6311642;28;20298;-68
2022/08/29 02:05:48;;;;;;;0.80;0.80;;;14.30;99.90;;;;;;6311340;28;20294;-68
2022/08/29 02:08:54;;;;;;;6.45;1.20;;;14.20;99.90;;;;;;6309938;28;20293;-68
2022/08/29 02:12:05;;;;;;;1.08;0.85;;;14.20;99.90;;;;;;6302217;28;20283;-69
2022/08/29 02:15:13;;;;;;;1.08;0.70;;;14.30;99.90;;;;;;6311624;28;20266;-68
2022/08/29 02:18:18;;;;;;;0.88;0.88;;;14.30;99.90;;;;;;6310842;28;20363;-68
2022/08/29 02:21:27;;;;;;;1.65;0.90;;;14.20;99.90;;;;;;6311375;28;20289;-68
2022/08/29 02:24:33;;;;;;;2.30;0.90;;;14.20;99.90;;;;;;6311012;28;20481;-68
2022/08/29 02:27:41;;;;;;;0.70;0.70;;;14.20;99.90;;;;;;6310610;28;20586;-68
2022/08/29 02:30:51;;;;;;;2.40;0.95;;;14.20;99.90;;;;;;6311541;28;20279;-68
2022/08/29 02:34:01;;;;;;;0.90;0.90;;;14.20;99.90;;;;;;6310735;28;20294;-67
2022/08/29 02:37:07;;;;;;;2.38;0.88;;;14.20;99.90;;;;;;6310054;28;20274;-67
2022/08/29 02:40:13;;;;;;;2.40;1.00;;;14.20;99.90;;;;;;6311269;28;20275;-67
2022/08/29 02:43:20;;;;;;;1.40;0.80;;;14.30;99.90;;;;;;6310483;28;20302;-67
2022/08/29 02:46:26;;;;;;;2.20;0.90;;;14.20;99.90;;;;;;6310982;28;20271;-68
2022/08/29 02:49:32;;;;;;;1.02;1.02;;;14.20;99.90;;;;;;6310727;28;20298;-67
2022/08/29 02:52:39;;;;;;;2.38;1.00;;;14.20;99.90;;;;;;6310039;28;20476;-67
2022/08/29 02:55:46;;;;;;;1.92;1.08;;;14.30;99.90;;;;;;6310366;28;20270;-67
2022/08/29 02:58:53;;;;;;;1.02;1.02;;;14.30;99.90;;;;;;6309881;28;20437;-67
2022/08/29 03:01:58;;;;;;;1.10;1.10;;;14.20;99.90;;;;;;6303894;28;20287;-68
2022/08/29 03:05:06;;;;;;;1.13;1.02;;;14.20;99.90;;;;;;6310337;28;20290;-67
2022/08/29 03:08:14;;;;;;;1.48;1.00;;;14.30;99.90;;;;;;6310557;28;20297;-68
2022/08/29 03:11:20;;;;;;;1.75;0.90;;;14.20;99.90;;;;;;6310868;28;20271;-67
2022/08/29 03:14:27;;;;;;;3.70;1.10;;;14.20;99.90;;;;;;6310578;28;20298;-67
2022/08/29 03:17:33;;;;;;;1.00;1.00;;;14.20;99.90;;;;;;6310236;28;20290;-67
2022/08/29 03:20:38;;;;;;;2.67;1.08;;;14.20;99.90;;;;;;6310727;28;20263;-67
2022/08/29 03:23:44;;;;;;;1.38;1.30;;;14.20;99.90;;;;;;6310041;28;20301;-67
2022/08/29 03:26:49;;;;;;;1.20;1.20;;;14.30;99.90;;;;;;6310889;28;20275;-67
2022/08/29 03:30:03;;;;;;;1.45;1.20;;;14.20;99.90;;;;;;6309636;28;20270;-67
2022/08/29 03:33:11;;;;;;;1.00;1.00;;;14.30;99.90;;;;;;6310387;28;20299;-67
2022/08/29 03:36:17;;;;;;;1.98;1.25;;;14.20;99.90;;;;;;6310595;28;20263;-67
2022/08/29 03:39:22;;;;;;;1.17;1.08;;;14.30;99.90;;;;;;6309799;28;20314;-67
2022/08/29 03:42:29;;;;;;;1.73;1.17;;;14.30;99.90;;;;;;6309708;28;20293;-67
2022/08/29 03:45:36;;;;;;;1.27;1.00;;;14.30;99.90;;;;;;6310440;28;20266;-67
2022/08/29 03:48:41;;;;;;;2.05;1.30;;;14.30;99.90;;;;;;6309812;28;20303;-67
2022/08/29 03:51:48;;;;;;;1.48;1.10;;;14.30;99.90;;;;;;6310748;28;20427;-68
2022/08/29 03:54:54;;;;;;;1.35;1.30;;;14.30;99.90;;;;;;6309811;28;20303;-67
2022/08/29 03:58:01;;;;;;;2.65;1.10;;;14.30;99.90;;;;;;6309942;28;20573;-67
2022/08/29 04:01:07;;;;;;;2.30;1.13;;;14.30;99.90;;;;;;6310270;28;20275;-67
2022/08/29 04:05:05;;;;;;;1.77;1.00;;;14.30;99.90;;;;;;6309691;28;20307;-67
2022/08/29 04:07:45;;;;;;;1.20;1.10;;;14.20;99.90;;;;;;6309469;28;20582;-68
2022/08/29 04:10:50;;;;;;;1.27;1.20;;;14.20;99.90;;;;;;6310417;28;20267;-67
2022/08/29 04:13:55;;;;;;;1.10;1.00;;;14.20;99.90;;;;;;6309835;28;20302;-67
2022/08/29 04:17:03;;;;;;;1.05;0.95;;;14.20;99.90;;;;;;6309589;28;20275;-67
2022/08/29 04:20:11;;;;;;;2.45;1.00;;;14.20;99.90;;;;;;6310155;28;20275;-68
2022/08/29 04:23:17;;;;;;;1.77;1.20;;;14.20;99.90;;;;;;6309409;28;20298;-68
2022/08/29 04:26:23;;;;;;;1.00;1.00;;;14.20;99.90;;;;;;6309989;28;20549;-67
2022/08/29 04:29:42;;;;;;;5.60;1.30;;;14.20;99.90;;;;;;6309305;28;20290;-68
2022/08/29 04:32:49;;;;;;;1.20;1.20;;;14.10;99.90;;;;;;6309211;28;20481;-67
2022/08/29 04:35:54;;;;;;;1.67;1.38;;;14.20;99.90;;;;;;6313673;28;20557;-67
2022/08/29 04:38:59;;;;;;;3.65;1.27;;;14.20;99.90;;;;;;6313838;28;20302;-68
2022/08/29 04:42:05;;;;;;;2.70;1.15;;;14.10;99.90;;;;;;6313556;28;20270;-67
2022/08/29 04:45:14;;;;;;;4.13;1.20;;;14.20;99.90;;;;;;6314277;28;20554;-67
2022/08/29 04:48:21;;;;;;;1.25;1.17;;;14.20;99.90;;;;;;6313336;28;20344;-68
2022/08/29 04:51:27;;;;;;;1.20;1.17;;;14.30;99.90;;;;;;6313718;28;20270;-67
2022/08/29 04:54:32;;;;;;;1.83;1.73;;;14.20;99.90;;;;;;6313284;28;20298;-67
2022/08/29 04:57:39;;;;;;;1.20;1.20;;;14.20;99.90;;;;;;6313514;28;20290;-68
2022/08/29 05:00:46;;;;;;;1.20;1.10;;;14.10;99.90;;;;;;6314029;28;20273;-68
2022/08/29 05:03:54;;;;;;;4.50;1.30;;;14.10;99.90;;;;;;6304825;28;20310;-67
2022/08/29 05:06:59;;;;;;;1.90;1.02;;;14.20;99.90;;;;;;6288167;28;20290;-67
2022/08/29 05:10:08;;;;;;;3.80;1.67;;;14.20;99.90;;;;;;6282513;28;20265;-67
2022/08/29 05:13:16;;;;;;;1.38;1.27;;;14.20;99.90;;;;;;6286789;28;20298;-67
2022/08/29 05:16:21;;;;;;;1.40;1.17;;;14.30;99.90;;;;;;6288418;28;20263;-67
2022/08/29 05:19:28;;;;;;;2.10;1.60;;;14.30;99.90;;;;;;6287694;28;20306;-67
2022/08/29 05:22:39;;;;;;;0.88;0.88;;;14.40;99.90;;;;;;6287065;28;20327;-67
2022/08/29 05:25:45;;;;;;;1.73;1.60;;;14.40;99.90;;;;;;6287763;28;20275;-68
2022/08/29 05:28:50;;;;;;;1.60;1.20;;;14.40;99.90;;;;;;6287660;28;20299;-67
2022/08/29 05:31:56;;;;;;;4.95;1.00;;;14.50;99.90;;;;;;6287246;28;20559;-68
2022/08/29 05:35:03;;;;;;;1.60;1.20;;;14.50;99.90;;;;;;6287669;28;20275;-67
2022/08/29 05:38:10;;;;;;;4.30;1.20;;;14.50;99.90;;;;;;6286965;28;20300;-68
2022/08/29 05:41:15;;;;;;;8.98;1.60;;;14.50;99.90;;;;;;6287720;28;20462;-67
2022/08/29 05:44:21;;;;;;;2.05;1.10;;;14.50;99.90;;;;;;6286453;28;20591;-67
2022/08/29 05:47:26;;;;;;;1.75;1.17;;;14.40;99.90;;;;;;6285745;28;20292;-67
2022/08/29 05:50:36;;;;;;;2.08;1.25;;;14.50;99.90;;;;;;6287776;28;20315;-68
2022/08/29 05:53:42;;;;;;;1.70;1.27;;;14.50;99.90;;;;;;6286115;28;20295;-68
2022/08/29 05:56:47;;;;;;;1.30;1.20;;;14.60;99.90;;;;;;6287213;28;20275;-68
2022/08/29 05:59:55;;;;;;;1.35;1.30;;;14.60;99.90;;;;;;6286081;28;20270;-68
2022/08/29 06:03:00;;;;;;;1.40;1.30;;;14.60;99.90;;;;;;6285500;28;20296;-68
2022/08/29 06:06:08;;;;;;;1.40;1.30;;;14.60;99.90;;;;;;6286749;28;20601;-68
2022/08/29 06:09:14;;;;;;;1.35;1.13;;;14.50;99.90;;;;;;6286561;28;20301;-68
2022/08/29 06:12:20;;;;;;;1.45;1.35;;;14.60;99.90;;;;;;6286348;28;20290;-68
2022/08/29 06:15:28;;;;;;;1.50;1.40;;;14.60;99.90;;;;;;6286997;28;20280;-67
2022/08/29 06:18:34;;;;;;;4.88;1.45;;;14.60;99.90;;;;;;6285785;28;20299;-68
2022/08/29 06:21:42;;;;;;;1.20;1.20;;;14.70;99.90;;;;;;6286684;28;20279;-68
2022/08/29 06:24:48;;;;;;;2.60;1.10;;;14.70;99.90;;;;;;6286061;28;20306;-67
2022/08/29 06:27:54;;;;;;;2.88;1.30;;;14.70;99.90;;;;;;6285838;28;20295;-68
2022/08/29 06:31:07;;;;;;;1.40;1.30;;;14.60;99.90;;;;;;6286324;28;20606;-67
2022/08/29 06:34:12;;;;;;;3.70;1.20;;;14.60;99.90;;;;;;6285095;28;20304;-68
2022/08/29 06:37:19;;;;;;;4.55;1.38;;;14.70;99.90;;;;;;6285442;28;20286;-67
2022/08/29 06:40:25;;;;;;;1.20;1.20;;;14.70;99.90;;;;;;6286122;28;20271;-67
2022/08/29 06:43:31;;;;;;;1.38;1.27;;;14.80;99.90;;;;;;6285374;28;20295;-67
2022/08/29 06:46:40;;;;;;;1.45;1.35;;;14.80;99.90;;;;;;6286282;28;20291;-67
2022/08/29 06:49:46;;;;;;;1.67;1.00;;;14.80;99.90;;;;;;6285415;28;20480;-67
2022/08/29 06:52:53;;;;;;;2.17;1.55;;;14.90;99.90;;;;;;6285605;28;20302;-67
2022/08/29 06:56:05;;;;;;;1.58;1.38;;;15.00;99.90;;;;;;6285789;28;20274;-67
2022/08/29 06:59:15;;;;;;;3.55;1.30;;;15.00;99.90;;;;;;6285160;28;20291;-67
2022/08/29 07:02:21;;;;;;;2.00;1.30;;;15.10;99.90;;;;;;6285076;28;20287;-67
2022/08/29 07:05:26;;;;;;;1.30;1.30;;;15.20;99.90;;;;;;6285153;28;20302;-67
2022/08/29 07:08:34;;;;;;;1.48;1.33;;;15.20;99.90;;;;;;6285176;28;20298;-67
2022/08/29 07:11:41;;;;;;;3.53;1.30;;;15.30;99.90;;;;;;6285344;28;20268;-68
2022/08/29 07:14:46;;;;;;;3.00;1.60;;;15.60;99.90;;;;;;6285372;28;20303;-68
2022/08/29 07:17:54;;;;;;;3.05;1.55;;;15.90;99.90;;;;;;6285117;28;20299;-68
2022/08/29 07:21:06;;;;;;;4.97;1.88;;;16.10;99.90;;;;;;6285445;28;20275;-68
2022/08/29 07:24:13;;;;;;;3.33;1.10;;;16.10;99.90;;;;;;6284763;28;20300;-68
2022/08/29 07:27:19;;;;;;;1.90;1.20;;;16.00;99.90;;;;;;6284779;28;20290;-68
2022/08/29 07:30:25;;;;;;;3.63;1.30;;;16.00;99.90;;;;;;6285419;28;20267;-68
2022/08/29 07:33:30;;;;;;;1.65;1.38;;;16.00;99.90;;;;;;6284698;28;20566;-68
2022/08/29 07:36:36;;;;;;;1.52;1.40;;;16.00;99.90;;;;;;6285525;28;20550;-68
2022/08/29 07:39:43;;;;;;;1.50;1.40;;;16.00;99.90;;;;;;6284838;28;20399;-67
2022/08/29 07:42:49;;;;;;;2.67;1.25;;;16.00;99.90;;;;;;6284941;28;20294;-68
2022/08/29 07:45:55;;;;;;;1.27;1.27;;;16.10;99.90;;;;;;6285249;28;20290;-68
2022/08/29 07:49:01;;;;;;;2.63;1.33;;;16.10;99.90;;;;;;6284686;28;20294;-67
2022/08/29 07:52:07;;;;;;;1.48;1.27;;;16.20;99.90;;;;;;6284734;28;20267;-68
2022/08/29 07:55:14;;;;;;;2.50;1.25;;;16.20;99.90;;;;;;6267288;28;20267;-68
2022/08/29 07:58:19;;;;;;;2.78;1.35;;;16.20;99.90;;;;;;6284674;28;20295;-68
2022/08/29 08:01:25;;;;;;;2.92;1.23;;;16.20;99.90;;;;;;6285299;28;20529;-68
2022/08/29 08:04:30;;;;;;;2.55;1.10;;;16.30;99.90;;;;;;6284249;28;20303;-67
2022/08/29 08:07:36;;;;;;;1.92;1.23;;;16.40;99.90;;;;;;6284658;28;20574;-67
2022/08/29 08:10:46;;;;;;;1.52;1.27;;;16.50;99.90;;;;;;6289209;28;20263;-68
2022/08/29 08:13:57;;;;;;;2.55;1.10;;;16.60;99.90;;;;;;6288914;28;20300;-68
2022/08/29 08:17:03;;;;;;;1.35;1.27;;;16.80;99.90;;;;;;6288755;28;20445;-68
2022/08/29 08:20:11;;;;;;;1.10;1.10;;;16.80;99.90;;;;;;6289374;28;20291;-68
2022/08/29 08:23:16;;;;;;;1.25;1.25;;;16.90;99.90;;;;;;6287625;28;20327;-68
2022/08/29 08:26:24;;;;;;;1.48;1.10;;;16.80;99.90;;;;;;6289112;28;20290;-67
2022/08/29 08:29:30;;;;;;;1.42;1.33;;;17.00;99.90;;;;;;6288578;28;20295;-68
2022/08/29 08:32:36;;;;;;;3.40;1.00;;;17.00;99.90;;;;;;6288478;28;20291;-67
2022/08/29 08:35:41;;;;;;;1.10;1.10;;;17.00;99.90;;;;;;6289333;28;20271;-67
2022/08/29 08:38:52;;;;;;;1.23;1.23;;;17.00;99.90;;;;;;6288672;28;20299;-67
2022/08/29 08:42:05;;;;;;;2.55;1.40;;;17.10;99.90;;;;;;6288573;28;20291;-67
2022/08/29 08:45:13;;;;;;;1.23;1.20;;;17.10;99.90;;;;;;6288494;28;20274;-67
2022/08/29 08:48:22;;;;;;;1.98;1.33;;;17.00;99.90;;;;;;6288193;28;20562;-67
2022/08/29 08:51:32;;;;;;;1.65;1.38;;;17.10;99.90;;;;;;6288482;28;20267;-67
2022/08/29 08:54:46;;;;;;;2.50;1.35;;;17.20;99.90;;;;;;6288701;28;20298;-67
2022/08/29 08:58:01;;;;;;;1.40;1.40;;;17.30;99.90;;;;;;6288306;28;20477;-67
2022/08/29 09:01:17;;;;;;;1.30;1.20;;;17.40;99.90;;;;;;6288473;28;20276;-68
2022/08/29 09:04:41;;;;;;;1.52;1.30;;;17.50;99.90;;;;;;6288283;28;20303;-68
2022/08/29 09:07:53;;;;;;;4.28;2.60;;;17.70;99.90;;;;;;6287857;28;20302;-68
2022/08/29 09:11:04;;;;;;;1.17;1.17;;;17.60;99.90;;;;;;6288109;28;20267;-68
2022/08/29 09:14:27;;;;;;;2.50;1.10;;;17.70;99.90;;;;;;6287992;28;20294;-67
2022/08/29 09:17:41;;;;;;;1.42;1.42;;;17.80;99.90;;;;;;6288075;28;20300;-68
2022/08/29 09:20:46;;;;;;;1.27;1.27;;;17.80;99.90;;;;;;6287848;28;20271;-68
2022/08/29 09:23:58;;;;;;;1.33;1.33;;;17.70;99.90;;;;;;6287989;28;20294;-68
2022/08/29 09:27:05;;;;;;;2.97;1.20;;;17.80;99.90;;;;;;6287427;28;20287;-67
2022/08/29 09:30:17;;;;;;;1.35;1.30;;;17.80;99.90;;;;;;6288036;28;20267;-67
2022/08/29 09:33:22;;;;;;;1.40;1.30;;;17.90;99.90;;;;;;6287658;28;20299;-67
2022/08/29 09:36:42;;;;;;;1.60;1.17;;;17.90;99.90;;;;;;6287968;28;20275;-67
2022/08/29 09:39:59;;;;;;;1.15;1.13;;;18.00;99.90;;;;;;6287003;28;20303;-67
2022/08/29 09:43:06;;;;;;;1.10;1.10;;;18.00;99.90;;;;;;6286799;28;20310;-67
2022/08/29 09:46:22;;;;;;;3.17;1.20;;;18.00;99.90;;;;;;6287191;28;20292;-67
2022/08/29 09:49:27;;;;;;;1.20;1.10;;;17.90;99.90;;;;;;6287083;28;20365;-67
2022/08/29 09:52:33;;;;;;;1.20;1.20;;;17.90;99.90;;;;;;6286928;28;20307;-67
2022/08/29 09:55:43;;;;;;;1.30;1.30;;;17.90;99.90;;;;;;6286960;28;20546;-67
2022/08/29 09:59:01;;;;;;;1.10;1.10;;;17.90;99.90;;;;;;6286507;28;20298;-67
2022/08/29 10:02:25;;;;;;;1.58;1.00;;;17.90;99.90;;;;;;6286402;28;20271;-67
2022/08/29 10:05:41;;;;;;;1.83;1.20;;;17.90;99.90;;;;;;6286886;28;20301;-67
2022/08/29 10:09:08;;;;;;;1.05;1.05;;;17.80;99.90;;;;;;6286437;28;20311;-67
2022/08/29 10:12:17;;;;;;;3.92;1.00;;;17.90;99.90;;;;;;6277994;28;20299;-67
2022/08/29 10:15:27;;;;;;;3.40;1.30;;;17.90;99.90;;;;;;6287030;28;20267;-68
2022/08/29 10:18:58;;;;;;;1.83;1.10;;;18.00;99.90;;;;;;6286387;28;20303;-68
2022/08/29 10:22:11;;;;;;;2.33;1.45;;;18.00;99.90;;;;;;6285599;28;20439;-68
2022/08/29 10:25:20;;;;;;;1.98;1.70;;;18.00;99.90;;;;;;6286669;28;20277;-67
2022/08/29 10:28:32;;;;;;;0.98;0.98;;;17.90;99.90;;;;;;6285793;28;20298;-67
2022/08/29 10:31:44;;;;;;;1.27;1.27;;;17.90;99.90;;;;;;6285491;28;20348;-67
2022/08/29 10:35:04;;;;;;;2.47;1.20;;;17.80;99.90;;;;;;6286105;28;20295;-67
2022/08/29 10:38:21;;;;;;;3.00;1.20;;;17.80;99.90;;;;;;6285652;28;20299;-68
2022/08/29 10:41:33;;;;;;;1.17;1.10;;;17.70;99.90;;;;;;6268665;28;20271;-68
2022/08/29 10:44:52;;;;;;;1.55;1.10;;;17.70;99.90;;;;;;6285857;28;20299;-68
2022/08/29 10:48:04;;;;;;;1.10;1.10;;;17.60;99.90;;;;;;6285950;28;20302;-68
2022/08/29 10:51:21;;;;;;;2.05;1.10;;;17.50;99.90;;;;;;6286083;28;20271;-67
2022/08/29 10:54:40;;;;;;;1.00;1.00;;;17.50;99.90;;;;;;6285436;28;20295;-68
2022/08/29 10:57:57;;;;;;;1.00;1.00;;;17.40;99.90;;;;;;6285721;28;20315;-67
2022/08/29 11:01:10;;;;;;;1.00;1.00;;;17.40;99.90;;;;;;6285355;28;20583;-67
2022/08/29 11:04:20;;;;;;;1.63;1.20;;;17.40;99.90;;;;;;6287321;28;20554;-67
2022/08/29 11:07:32;;;;;;;1.00;1.00;;;17.40;99.90;;;;;;6285133;28;20303;-67
2022/08/29 11:10:41;;;;;;;3.10;0.88;;;17.50;99.90;;;;;;6277618;28;20260;-67
2022/08/29 11:13:51;;;;;;;0.80;0.80;;;17.50;99.90;;;;;;6285194;28;20291;-67
2022/08/29 11:16:57;;;;;;;1.40;1.00;;;17.40;99.90;;;;;;6284744;28;20583;-67
2022/08/29 11:20:14;;;;;;;1.65;1.20;;;17.40;99.90;;;;;;6285600;28;20295;-67
2022/08/29 11:23:32;;;;;;;1.98;0.90;;;17.50;99.90;;;;;;6285202;28;20295;-67
2022/08/29 11:26:53;;;;;;;2.47;1.02;;;17.40;99.90;;;;;;6285503;28;20287;-67
2022/08/29 11:30:05;;;;;;;3.33;1.30;;;17.50;99.90;;;;;;6284561;28;20295;-66
2022/08/29 11:33:26;;;;;;;1.88;1.17;;;17.50;99.90;;;;;;6284984;28;20303;-66
2022/08/29 11:36:45;;;;;;;1.17;1.17;;;17.60;99.90;;;;;;6285545;28;20267;-66
2022/08/29 11:39:59;;;;;;;0.93;0.93;;;17.50;99.90;;;;;;6285075;28;20593;-67
2022/08/29 11:43:06;;;;;;;0.80;0.80;;;17.50;99.90;;;;;;6285879;28;20578;-67
2022/08/29 11:46:25;;;;;;;1.17;1.17;;;17.50;99.90;;;;;;6290322;28;20286;-67
2022/08/29 11:49:40;;;;;;;1.20;1.20;;;17.50;99.90;;;;;;6290005;28;20298;-67
2022/08/29 11:52:55;;;;;;;1.38;1.38;;;17.60;99.90;;;;;;6289523;28;20467;-67
2022/08/29 11:56:26;;;;;;;1.33;1.30;;;17.60;99.90;;;;;;6290401;28;20271;-67
2022/08/29 11:59:58;;;;;;;1.85;1.45;;;17.50;99.90;;;;;;6286436;28;20303;-67
2022/08/29 12:03:05;;;;;;;1.00;1.00;;;17.50;99.90;;;;;;6288595;28;20574;-66
2022/08/29 12:06:57;;;;;;;0.90;0.90;;;17.40;99.90;;;;;;6315106;28;20291;-67
2022/08/29 12:10:11;;;;;;;0.90;0.90;;;17.40;99.90;;;;;;6305233;28;20290;-67
2022/08/29 12:14:03;;;;;;;1.00;1.00;;;17.40;99.90;;;;;;6289158;28;20600;-67
2022/08/29 12:17:27;;;;;;;1.85;1.10;;;17.40;99.90;;;;;;6287802;28;20290;-67
2022/08/29 12:20:54;;;;;;;1.67;0.85;;;17.50;99.90;;;;;;6289702;28;20271;-68
2022/08/29 12:24:01;;;;;;;0.82;0.80;;;17.50;99.90;;;;;;6271360;28;20342;-67
2022/08/29 12:27:22;;;;;;;1.00;1.00;;;17.50;99.90;;;;;;6287863;28;20347;-66
2022/08/29 12:30:33;;;;;;;2.05;1.20;;;17.50;99.90;;;;;;6289996;28;20299;-67
2022/08/29 12:33:53;;;;;;;1.27;0.77;;;17.50;99.90;;;;;;6289240;28;20311;-67
2022/08/29 12:37:43;;;;;;;0.60;0.60;;;17.60;99.90;;;;;;6289019;28;20267;-67
2022/08/29 12:41:31;;;;;;;0.93;0.90;;;17.80;99.90;;;;;;6286068;28;20274;-67
2022/08/29 12:44:40;;;;;;;0.98;0.73;;;17.90;99.90;;;;;;6289390;28;20307;-67
2022/08/29 12:47:50;;;;;;;1.17;0.80;;;17.90;99.70;;;;;;6288359;28;20299;-67
2022/08/29 12:50:56;;;;;;;0.90;0.90;;;17.90;99.50;;;;;;6289043;28;20295;-67
2022/08/29 12:54:01;;;;;;;1.48;0.60;;;18.00;98.60;;;;;;6287860;28;20294;-67
2022/08/29 12:57:18;;;;;;;0.80;0.80;;;18.00;98.10;;;;;;6288205;28;20271;-68
2022/08/29 13:00:26;;;;;;;1.38;0.70;;;18.00;97.50;;;;;;6288556;28;20280;-68
2022/08/29 13:03:35;;;;;;;0.80;0.77;;;18.20;98.30;;;;;;6288587;28;20296;-68
2022/08/29 13:06:54;;;;;;;2.33;0.77;;;18.20;98.00;;;;;;6313099;28;20271;-68
2022/08/29 13:10:01;;;;;;;0.80;0.80;;;18.20;98.40;;;;;;6307783;28;20291;-69
2022/08/29 13:13:11;;;;;;;0.77;0.77;;;18.30;98.10;;;;;;6310414;28;20362;-68
2022/08/29 13:16:25;;;;;;;0.70;0.70;;;18.30;97.00;;;;;;6313309;28;20266;-69
2022/08/29 13:19:32;;;;;;;2.00;0.80;;;18.30;96.30;;;;;;6312708;28;20298;-68
2022/08/29 13:22:37;;;;;;;0.82;0.82;;;18.20;95.30;;;;;;6312964;28;20295;-67
2022/08/29 13:25:50;;;;;;;0.77;0.77;;;18.30;95.40;;;;;;6312944;28;20270;-68
2022/08/29 13:28:58;;;;;;;1.15;0.75;;;18.30;95.20;;;;;;6312381;28;20295;-68
2022/08/29 13:32:22;;;;;;;0.70;0.70;;;18.30;95.30;;;;;;6312227;28;20270;-69
2022/08/29 13:35:34;;;;;;;0.63;0.63;;;18.30;97.00;;;;;;6312911;28;20561;-68
2022/08/29 13:38:40;;;;;;;0.93;0.93;;;18.20;98.40;;;;;;6311682;28;20602;-67
2022/08/29 13:41:50;;;;;;;2.40;0.88;;;18.20;99.10;;;;;;6312753;28;20270;-67
2022/08/29 13:45:12;;;;;;;0.98;0.90;;;18.00;99.00;;;;;;6311788;28;20290;-68
2022/08/29 13:48:19;;;;;;;1.45;0.90;;;18.00;98.50;;;;;;6311954;28;20298;-68
2022/08/29 13:51:27;;;;;;;0.68;0.65;;;17.90;98.80;;;;;;6303561;28;20294;-67
2022/08/29 13:54:34;;;;;;;1.27;0.80;;;17.80;98.80;;;;;;6311852;28;20299;-67
2022/08/29 13:57:41;;;;;;;1.88;1.00;;;17.90;99.10;;;;;;6312072;28;20565;-67
2022/08/29 14:00:46;;;;;;;1.95;1.00;;;18.00;98.60;;;;;;6311918;28;20290;-67
2022/08/29 14:03:53;;;;;;;0.70;0.70;;;18.00;98.30;;;;;;6311668;28;20302;-68
2022/08/29 14:07:01;;;;;;;1.45;0.70;;;18.00;98.50;;;;;;6310729;28;20275;-67
2022/08/29 14:10:08;;;;;;;1.02;0.80;;;17.80;98.90;;;;;;6311518;28;20279;-67
2022/08/29 14:13:15;;;;;;;1.10;0.85;;;18.00;99.00;;;;;;6310850;28;20230;-67
2022/08/29 14:16:20;;;;;;;1.00;0.95;;;18.00;98.60;;;;;;6311041;28;20270;-67
2022/08/29 14:19:28;;;;;;;3.05;0.80;;;18.10;98.60;;;;;;6310536;28;20298;-68
2022/08/29 14:22:35;;;;;;;2.08;0.90;;;18.10;98.70;;;;;;6310687;28;20286;-68
2022/08/29 14:25:40;;;;;;;0.70;0.70;;;18.10;98.60;;;;;;6311262;28;20270;-68
2022/08/29 14:28:46;;;;;;;0.70;0.70;;;17.90;98.40;;;;;;6310630;28;20298;-68
2022/08/29 14:31:53;;;;;;;0.90;0.90;;;17.80;98.20;;;;;;6310776;28;20298;-68
2022/08/29 14:34:58;;;;;;;0.70;0.70;;;17.70;98.40;;;;;;6309774;28;20270;-68
2022/08/29 14:38:06;;;;;;;0.75;0.70;;;17.70;98.00;;;;;;6310690;28;20298;-67
2022/08/29 14:41:15;;;;;;;0.68;0.68;;;17.70;97.90;;;;;;6310141;28;20278;-68
2022/08/29 14:44:21;;;;;;;0.80;0.80;;;17.60;98.30;;;;;;6310529;28;20462;-68
2022/08/29 14:47:27;;;;;;;0.70;0.70;;;17.60;98.30;;;;;;6302498;28;20290;-68
2022/08/29 14:50:33;;;;;;;1.13;0.98;;;17.70;98.70;;;;;;6310506;28;20290;-67
2022/08/29 14:53:39;;;;;;;1.00;0.95;;;17.70;98.50;;;;;;6310723;28;20294;-68
2022/08/29 14:56:59;;;;;;;0.80;0.80;;;17.80;98.40;;;;;;6310259;28;20270;-68
2022/08/29 15:00:08;;;;;;;0.90;0.90;;;17.90;98.40;;;;;;6310752;28;20268;-68
2022/08/29 15:03:14;;;;;;;3.20;0.80;;;17.70;97.90;;;;;;6310882;28;20295;-67
2022/08/29 15:06:20;;;;;;;2.58;0.98;;;17.50;98.20;;;;;;6310476;28;20298;-67
2022/08/29 15:09:27;;;;;;;0.88;0.88;;;17.50;98.50;;;;;;6309879;28;20299;-68
2022/08/29 15:12:33;;;;;;;0.70;0.70;;;17.50;98.40;;;;;;6310490;28;20294;-67
2022/08/29 15:15:38;;;;;;;0.80;0.80;;;17.40;98.10;;;;;;6310739;28;20270;-68
2022/08/29 15:18:44;;;;;;;0.60;0.60;;;17.30;98.30;;;;;;6309787;28;20298;-67
2022/08/29 15:22:12;;;;;;;0.77;0.70;;;17.30;98.30;;;;;;6309729;28;20294;-68
2022/08/29 15:25:19;;;;;;;1.45;0.82;;;17.30;98.70;;;;;;6310247;28;20286;-67
2022/08/29 15:28:25;;;;;;;0.68;0.68;;;17.30;98.90;;;;;;6309878;28;20294;-67
2022/08/29 15:31:31;;;;;;;0.73;0.73;;;17.40;99.20;;;;;;6310516;28;20597;-67
2022/08/29 15:34:36;;;;;;;0.80;0.80;;;17.40;99.20;;;;;;6310183;28;20294;-67
2022/08/29 15:37:42;;;;;;;0.70;0.70;;;17.30;98.40;;;;;;6310297;28;20290;-67
2022/08/29 15:40:49;;;;;;;2.58;0.85;;;17.40;98.00;;;;;;6310496;28;20266;-67
2022/08/29 15:43:54;;;;;;;0.70;0.70;;;17.30;98.10;;;;;;6309863;28;20301;-68
2022/08/29 15:47:00;;;;;;;4.05;3.85;;;17.30;98.20;;;;;;6310013;28;20274;-68
2022/08/29 15:50:07;;;;;;;5.30;4.80;;;17.20;98.20;;;;;;6310368;28;20270;-67
2022/08/29 15:53:13;;;;;;;3.10;2.78;;;17.20;98.80;;;;;;6309313;28;20303;-67
2022/08/29 15:56:20;;;;;;;2.80;2.50;;;17.10;98.10;;;;;;6309868;28;20274;-68
2022/08/29 15:59:27;;;;;;;1.50;1.50;;;17.10;98.60;;;;;;6309700;28;20581;-68
2022/08/29 16:02:52;;;;;;;8.25;5.13;;;17.10;98.80;;;;;;6309654;28;20298;-67
2022/08/29 16:05:57;;;;;;;2.45;2.35;;;17.10;98.30;;;;;;6309675;28;20294;-68
2022/08/29 16:09:04;;;;;;;1.40;1.25;;;17.10;98.30;;;;;;6309665;28;20629;-67
2022/08/29 16:12:21;;;;;;;1.48;1.17;;;17.00;98.80;;;;;;6308849;28;20294;-69
2022/08/29 16:15:29;;;;;;;2.20;2.10;;;17.10;98.80;;;;;;6309480;28;20437;-69
2022/08/29 16:18:35;;;;;;;3.67;0.90;;;17.20;98.60;;;;;;6309319;28;20294;-68
2022/08/29 16:21:40;;;;;;;0.80;0.80;;;17.20;99.00;;;;;;6309657;28;20270;-69
2022/08/29 16:24:46;;;;;;;0.90;0.90;;;17.10;98.90;;;;;;6309465;28;20293;-68
2022/08/29 16:27:53;;;;;;;1.15;1.00;;;17.00;99.40;;;;;;6309067;28;20294;-68
2022/08/29 16:30:58;;;;;;;0.70;0.70;;;17.00;99.50;;;;;;6313578;28;20270;-68